Terminal Aerodrome Forecast
Issued by NWS Sioux Falls, SD

Home | Current Version | Previous Version | Text Only | Print | Product List | Glossary On
Versions: 1 2 3 4 5 6 7 8 9 10 11 12
000
FTUS43 KFSD 022300 RRA
TAFHON
TAF
KHON 022346Z 0300/0324 18011KT P6SM FEW060
     FM031200 20010KT P6SM SCT200
     FM031600 VRB05KT P6SM SCT150
     FM031900 34011KT P6SM SCT060
     FM032200 36013G21KT P6SM FEW050=

USA.gov is the U.S. government's official web portal to all federal, state and local government web resources and services.